sensor_id;sensor_type;location;lat;lon;timestamp;P1;durP1;ratioP1;P2;durP2;ratioP2
22939;SDS011;11636;52.086;5.090;2022-07-06T00:02:07;3.40;;;1.00;;
22939;SDS011;11636;52.086;5.090;2022-07-06T00:04:34;2.65;;;1.00;;
22939;SDS011;11636;52.086;5.090;2022-07-06T00:07:00;4.50;;;1.30;;
22939;SDS011;11636;52.086;5.090;2022-07-06T00:09:36;2.53;;;1.00;;
22939;SDS011;11636;52.086;5.090;2022-07-06T00:12:10;2.70;;;0.82;;
22939;SDS011;11636;52.086;5.090;2022-07-06T00:14:37;3.97;;;1.20;;
22939;SDS011;11636;52.086;5.090;2022-07-06T00:17:11;3.05;;;1.05;;
22939;SDS011;11636;52.086;5.090;2022-07-06T00:19:45;3.00;;;1.00;;
22939;SDS011;11636;52.086;5.090;2022-07-06T00:22:12;2.85;;;1.20;;
22939;SDS011;11636;52.086;5.090;2022-07-06T00:24:46;3.42;;;1.52;;
22939;SDS011;11636;52.086;5.090;2022-07-06T00:27:31;3.55;;;1.55;;
22939;SDS011;11636;52.086;5.090;2022-07-06T00:30:05;4.40;;;1.50;;
22939;SDS011;11636;52.086;5.090;2022-07-06T00:32:32;4.60;;;2.05;;
22939;SDS011;11636;52.086;5.090;2022-07-06T00:35:06;3.03;;;1.23;;
22939;SDS011;11636;52.086;5.090;2022-07-06T00:37:33;4.50;;;1.30;;
22939;SDS011;11636;52.086;5.090;2022-07-06T00:40:07;3.10;;;1.30;;
22939;SDS011;11636;52.086;5.090;2022-07-06T00:42:44;3.90;;;1.45;;
22939;SDS011;11636;52.086;5.090;2022-07-06T00:45:19;2.80;;;1.25;;
22939;SDS011;11636;52.086;5.090;2022-07-06T00:47:53;4.68;;;1.55;;
22939;SDS011;11636;52.086;5.090;2022-07-06T00:50:26;2.42;;;1.05;;
22939;SDS011;11636;52.086;5.090;2022-07-06T00:52:55;5.38;;;1.40;;
22939;SDS011;11636;52.086;5.090;2022-07-06T00:55:33;2.95;;;1.30;;
22939;SDS011;11636;52.086;5.090;2022-07-06T00:58:01;4.97;;;1.55;;
22939;SDS011;11636;52.086;5.090;2022-07-06T01:00:30;2.80;;;1.27;;
22939;SDS011;11636;52.086;5.090;2022-07-06T01:03:04;3.67;;;1.10;;
22939;SDS011;11636;52.086;5.090;2022-07-06T01:05:31;3.03;;;1.10;;
22939;SDS011;11636;52.086;5.090;2022-07-06T01:07:58;2.67;;;1.10;;
22939;SDS011;11636;52.086;5.090;2022-07-06T01:10:33;3.13;;;1.10;;
22939;SDS011;11636;52.086;5.090;2022-07-06T01:13:00;3.30;;;1.23;;
22939;SDS011;11636;52.086;5.090;2022-07-06T01:15:34;4.47;;;1.30;;
22939;SDS011;11636;52.086;5.090;2022-07-06T01:18:01;2.38;;;1.00;;
22939;SDS011;11636;52.086;5.090;2022-07-06T01:20:36;3.42;;;1.25;;
22939;SDS011;11636;52.086;5.090;2022-07-06T01:23:03;3.25;;;1.27;;
22939;SDS011;11636;52.086;5.090;2022-07-06T01:25:30;5.20;;;1.20;;
22939;SDS011;11636;52.086;5.090;2022-07-06T01:28:03;2.80;;;1.23;;
22939;SDS011;11636;52.086;5.090;2022-07-06T01:30:30;2.90;;;1.30;;
22939;SDS011;11636;52.086;5.090;2022-07-06T01:33:04;3.10;;;1.10;;
22939;SDS011;11636;52.086;5.090;2022-07-06T01:35:37;3.90;;;1.15;;
22939;SDS011;11636;52.086;5.090;2022-07-06T01:38:04;2.00;;;0.98;;
22939;SDS011;11636;52.086;5.090;2022-07-06T01:40:38;3.17;;;1.25;;
22939;SDS011;11636;52.086;5.090;2022-07-06T01:43:05;3.00;;;1.27;;
22939;SDS011;11636;52.086;5.090;2022-07-06T01:45:38;2.78;;;1.05;;
22939;SDS011;11636;52.086;5.090;2022-07-06T01:48:05;3.67;;;1.17;;
22939;SDS011;11636;52.086;5.090;2022-07-06T01:50:32;2.60;;;0.93;;
22939;SDS011;11636;52.086;5.090;2022-07-06T01:53:06;2.80;;;1.10;;
22939;SDS011;11636;52.086;5.090;2022-07-06T01:55:35;2.78;;;0.90;;
22939;SDS011;11636;52.086;5.090;2022-07-06T01:58:09;3.72;;;1.25;;
22939;SDS011;11636;52.086;5.090;2022-07-06T02:00:46;2.92;;;0.95;;
22939;SDS011;11636;52.086;5.090;2022-07-06T02:03:20;2.97;;;0.93;;
22939;SDS011;11636;52.086;5.090;2022-07-06T02:05:47;4.00;;;1.20;;
22939;SDS011;11636;52.086;5.090;2022-07-06T02:08:20;3.60;;;1.30;;
22939;SDS011;11636;52.086;5.090;2022-07-06T02:10:47;3.47;;;1.30;;
22939;SDS011;11636;52.086;5.090;2022-07-06T02:13:26;2.30;;;0.95;;
22939;SDS011;11636;52.086;5.090;2022-07-06T02:15:58;2.38;;;0.68;;
22939;SDS011;11636;52.086;5.090;2022-07-06T02:18:32;2.95;;;1.00;;
22939;SDS011;11636;52.086;5.090;2022-07-06T02:20:59;2.67;;;0.93;;
22939;SDS011;11636;52.086;5.090;2022-07-06T02:23:26;4.38;;;0.98;;
22939;SDS011;11636;52.086;5.090;2022-07-06T02:26:00;1.98;;;0.90;;
22939;SDS011;11636;52.086;5.090;2022-07-06T02:28:27;3.78;;;1.20;;
22939;SDS011;11636;52.086;5.090;2022-07-06T02:31:00;2.97;;;1.20;;
22939;SDS011;11636;52.086;5.090;2022-07-06T02:33:27;3.15;;;1.20;;
22939;SDS011;11636;52.086;5.090;2022-07-06T02:36:00;3.78;;;1.08;;
22939;SDS011;11636;52.086;5.090;2022-07-06T02:38:33;2.53;;;1.20;;
22939;SDS011;11636;52.086;5.090;2022-07-06T02:41:06;4.40;;;1.25;;
22939;SDS011;11636;52.086;5.090;2022-07-06T02:43:39;3.63;;;1.08;;
22939;SDS011;11636;52.086;5.090;2022-07-06T02:46:06;3.10;;;1.23;;
22939;SDS011;11636;52.086;5.090;2022-07-06T02:48:40;3.75;;;1.45;;
22939;SDS011;11636;52.086;5.090;2022-07-06T02:51:07;3.15;;;0.90;;
22939;SDS011;11636;52.086;5.090;2022-07-06T02:53:40;2.50;;;0.88;;
22939;SDS011;11636;52.086;5.090;2022-07-06T02:56:07;5.10;;;1.25;;
22939;SDS011;11636;52.086;5.090;2022-07-06T02:58:41;2.85;;;1.00;;
22939;SDS011;11636;52.086;5.090;2022-07-06T03:01:16;2.10;;;0.90;;
22939;SDS011;11636;52.086;5.090;2022-07-06T03:03:50;3.88;;;1.23;;
22939;SDS011;11636;52.086;5.090;2022-07-06T03:06:17;2.72;;;0.98;;
22939;SDS011;11636;52.086;5.090;2022-07-06T03:08:51;3.05;;;0.90;;
22939;SDS011;11636;52.086;5.090;2022-07-06T03:11:18;3.75;;;1.20;;
22939;SDS011;11636;52.086;5.090;2022-07-06T03:13:44;3.78;;;1.00;;
22939;SDS011;11636;52.086;5.090;2022-07-06T03:16:18;4.47;;;0.93;;
22939;SDS011;11636;52.086;5.090;2022-07-06T03:18:45;2.22;;;0.90;;
22939;SDS011;11636;52.086;5.090;2022-07-06T03:21:31;2.53;;;0.80;;
22939;SDS011;11636;52.086;5.090;2022-07-06T03:24:04;3.10;;;0.90;;
22939;SDS011;11636;52.086;5.090;2022-07-06T03:26:38;3.80;;;1.05;;
22939;SDS011;11636;52.086;5.090;2022-07-06T03:29:12;3.65;;;0.90;;
22939;SDS011;11636;52.086;5.090;2022-07-06T03:31:39;5.53;;;0.90;;
22939;SDS011;11636;52.086;5.090;2022-07-06T03:34:13;3.97;;;1.08;;
22939;SDS011;11636;52.086;5.090;2022-07-06T03:36:40;3.00;;;0.73;;
22939;SDS011;11636;52.086;5.090;2022-07-06T03:39:07;3.10;;;0.85;;
22939;SDS011;11636;52.086;5.090;2022-07-06T03:41:40;2.85;;;0.63;;
22939;SDS011;11636;52.086;5.090;2022-07-06T03:44:07;1.90;;;0.80;;
22939;SDS011;11636;52.086;5.090;2022-07-06T03:46:41;3.80;;;0.90;;
22939;SDS011;11636;52.086;5.090;2022-07-06T03:49:08;2.83;;;1.17;;
22939;SDS011;11636;52.086;5.090;2022-07-06T03:51:41;3.17;;;0.88;;
22939;SDS011;11636;52.086;5.090;2022-07-06T03:54:08;3.15;;;0.90;;
22939;SDS011;11636;52.086;5.090;2022-07-06T03:56:42;2.83;;;0.70;;
22939;SDS011;11636;52.086;5.090;2022-07-06T03:59:09;1.80;;;0.77;;
22939;SDS011;11636;52.086;5.090;2022-07-06T04:01:42;2.95;;;0.70;;
22939;SDS011;11636;52.086;5.090;2022-07-06T04:04:09;2.03;;;0.68;;
22939;SDS011;11636;52.086;5.090;2022-07-06T04:06:49;2.53;;;0.80;;
22939;SDS011;11636;52.086;5.090;2022-07-06T04:09:16;1.67;;;0.70;;
22939;SDS011;11636;52.086;5.090;2022-07-06T04:11:56;2.08;;;0.70;;
22939;SDS011;11636;52.086;5.090;2022-07-06T04:14:29;1.40;;;0.60;;
22939;SDS011;11636;52.086;5.090;2022-07-06T04:17:02;1.85;;;0.85;;
22939;SDS011;11636;52.086;5.090;2022-07-06T04:19:48;2.70;;;0.85;;
22939;SDS011;11636;52.086;5.090;2022-07-06T04:22:21;1.58;;;0.60;;
22939;SDS011;11636;52.086;5.090;2022-07-06T04:24:48;2.10;;;1.05;;
22939;SDS011;11636;52.086;5.090;2022-07-06T04:27:21;2.17;;;0.80;;
22939;SDS011;11636;52.086;5.090;2022-07-06T04:29:54;2.20;;;0.80;;
22939;SDS011;11636;52.086;5.090;2022-07-06T04:32:21;2.55;;;1.10;;
22939;SDS011;11636;52.086;5.090;2022-07-06T04:34:54;2.72;;;0.85;;
22939;SDS011;11636;52.086;5.090;2022-07-06T04:37:21;2.05;;;0.70;;
22939;SDS011;11636;52.086;5.090;2022-07-06T04:39:54;3.45;;;0.98;;
22939;SDS011;11636;52.086;5.090;2022-07-06T04:42:27;3.40;;;0.80;;
22939;SDS011;11636;52.086;5.090;2022-07-06T04:45:00;2.08;;;0.70;;
22939;SDS011;11636;52.086;5.090;2022-07-06T04:47:27;3.10;;;1.13;;
22939;SDS011;11636;52.086;5.090;2022-07-06T04:50:00;4.25;;;1.10;;
22939;SDS011;11636;52.086;5.090;2022-07-06T04:52:27;2.75;;;1.05;;
22939;SDS011;11636;52.086;5.090;2022-07-06T04:55:01;3.67;;;0.98;;
22939;SDS011;11636;52.086;5.090;2022-07-06T04:57:37;1.77;;;0.75;;
22939;SDS011;11636;52.086;5.090;2022-07-06T05:00:10;1.60;;;0.60;;
22939;SDS011;11636;52.086;5.090;2022-07-06T05:02:38;2.80;;;0.65;;
22939;SDS011;11636;52.086;5.090;2022-07-06T05:05:15;1.75;;;0.60;;
22939;SDS011;11636;52.086;5.090;2022-07-06T05:07:46;5.68;;;1.25;;
22939;SDS011;11636;52.086;5.090;2022-07-06T05:10:20;2.08;;;0.60;;
22939;SDS011;11636;52.086;5.090;2022-07-06T05:12:49;1.95;;;0.68;;
22939;SDS011;11636;52.086;5.090;2022-07-06T05:15:22;3.75;;;0.70;;
22939;SDS011;11636;52.086;5.090;2022-07-06T05:17:55;2.15;;;0.90;;
22939;SDS011;11636;52.086;5.090;2022-07-06T05:20:27;4.03;;;1.30;;
22939;SDS011;11636;52.086;5.090;2022-07-06T05:22:54;3.97;;;1.20;;
22939;SDS011;11636;52.086;5.090;2022-07-06T05:25:27;3.97;;;1.00;;
22939;SDS011;11636;52.086;5.090;2022-07-06T05:28:05;3.92;;;0.98;;
22939;SDS011;11636;52.086;5.090;2022-07-06T05:30:33;2.17;;;0.80;;
22939;SDS011;11636;52.086;5.090;2022-07-06T05:33:13;2.03;;;0.68;;
22939;SDS011;11636;52.086;5.090;2022-07-06T05:35:41;4.75;;;0.90;;
22939;SDS011;11636;52.086;5.090;2022-07-06T05:38:17;3.88;;;0.90;;
22939;SDS011;11636;52.086;5.090;2022-07-06T05:40:45;2.33;;;0.60;;
22939;SDS011;11636;52.086;5.090;2022-07-06T05:43:18;2.67;;;0.93;;
22939;SDS011;11636;52.086;5.090;2022-07-06T05:45:45;2.85;;;0.93;;
22939;SDS011;11636;52.086;5.090;2022-07-06T05:48:18;2.28;;;1.00;;
22939;SDS011;11636;52.086;5.090;2022-07-06T05:51:04;3.97;;;1.08;;
22939;SDS011;11636;52.086;5.090;2022-07-06T05:53:37;6.55;;;1.35;;
22939;SDS011;11636;52.086;5.090;2022-07-06T05:56:04;2.25;;;0.73;;
22939;SDS011;11636;52.086;5.090;2022-07-06T05:58:40;2.33;;;0.75;;
22939;SDS011;11636;52.086;5.090;2022-07-06T06:01:07;2.63;;;0.70;;
22939;SDS011;11636;52.086;5.090;2022-07-06T06:03:41;3.10;;;0.60;;
22939;SDS011;11636;52.086;5.090;2022-07-06T06:06:08;2.95;;;0.70;;
22939;SDS011;11636;52.086;5.090;2022-07-06T06:08:41;2.78;;;0.50;;
22939;SDS011;11636;52.086;5.090;2022-07-06T06:11:08;2.88;;;0.82;;
22939;SDS011;11636;52.086;5.090;2022-07-06T06:13:36;2.40;;;0.85;;
22939;SDS011;11636;52.086;5.090;2022-07-06T06:16:11;4.05;;;0.70;;
22939;SDS011;11636;52.086;5.090;2022-07-06T06:18:38;3.33;;;0.63;;
22939;SDS011;11636;52.086;5.090;2022-07-06T06:21:11;3.30;;;0.68;;
22939;SDS011;11636;52.086;5.090;2022-07-06T06:23:45;2.00;;;0.68;;
22939;SDS011;11636;52.086;5.090;2022-07-06T06:26:12;5.03;;;0.68;;
22939;SDS011;11636;52.086;5.090;2022-07-06T06:28:45;1.75;;;0.50;;
22939;SDS011;11636;52.086;5.090;2022-07-06T06:31:12;6.57;;;0.80;;
22939;SDS011;11636;52.086;5.090;2022-07-06T06:33:45;3.97;;;0.80;;
22939;SDS011;11636;52.086;5.090;2022-07-06T06:36:12;5.60;;;0.90;;
22939;SDS011;11636;52.086;5.090;2022-07-06T06:38:46;5.70;;;0.82;;
22939;SDS011;11636;52.086;5.090;2022-07-06T06:41:21;3.45;;;0.60;;
22939;SDS011;11636;52.086;5.090;2022-07-06T06:43:54;4.13;;;0.60;;
22939;SDS011;11636;52.086;5.090;2022-07-06T06:46:21;4.05;;;0.60;;
22939;SDS011;11636;52.086;5.090;2022-07-06T06:48:54;4.35;;;0.63;;
22939;SDS011;11636;52.086;5.090;2022-07-06T06:51:23;6.32;;;0.60;;
22939;SDS011;11636;52.086;5.090;2022-07-06T06:53:56;3.58;;;0.47;;
22939;SDS011;11636;52.086;5.090;2022-07-06T06:56:36;3.42;;;0.70;;
22939;SDS011;11636;52.086;5.090;2022-07-06T06:59:10;3.13;;;0.50;;
22939;SDS011;11636;52.086;5.090;2022-07-06T07:01:43;4.53;;;0.60;;
22939;SDS011;11636;52.086;5.090;2022-07-06T07:04:26;2.17;;;0.50;;
22939;SDS011;11636;52.086;5.090;2022-07-06T07:06:55;2.00;;;0.50;;
22939;SDS011;11636;52.086;5.090;2022-07-06T07:09:29;2.92;;;0.60;;
22939;SDS011;11636;52.086;5.090;2022-07-06T07:11:56;5.18;;;0.80;;
22939;SDS011;11636;52.086;5.090;2022-07-06T07:14:24;8.77;;;0.95;;
22939;SDS011;11636;52.086;5.090;2022-07-06T07:17:07;4.53;;;0.60;;
22939;SDS011;11636;52.086;5.090;2022-07-06T07:19:41;2.08;;;0.50;;
22939;SDS011;11636;52.086;5.090;2022-07-06T07:22:08;4.03;;;0.50;;
22939;SDS011;11636;52.086;5.090;2022-07-06T07:24:41;3.50;;;0.40;;
22939;SDS011;11636;52.086;5.090;2022-07-06T07:27:08;4.00;;;0.52;;
22939;SDS011;11636;52.086;5.090;2022-07-06T07:29:35;3.35;;;0.57;;
22939;SDS011;11636;52.086;5.090;2022-07-06T07:32:08;6.25;;;0.70;;
22939;SDS011;11636;52.086;5.090;2022-07-06T07:34:42;3.25;;;0.50;;
22939;SDS011;11636;52.086;5.090;2022-07-06T07:37:09;2.88;;;0.60;;
22939;SDS011;11636;52.086;5.090;2022-07-06T07:39:42;2.45;;;0.50;;
22939;SDS011;11636;52.086;5.090;2022-07-06T07:42:09;4.32;;;0.50;;
22939;SDS011;11636;52.086;5.090;2022-07-06T07:44:44;4.05;;;0.90;;
22939;SDS011;11636;52.086;5.090;2022-07-06T07:47:11;3.90;;;0.50;;
22939;SDS011;11636;52.086;5.090;2022-07-06T07:49:38;2.80;;;0.60;;
22939;SDS011;11636;52.086;5.090;2022-07-06T07:52:12;2.70;;;0.50;;
22939;SDS011;11636;52.086;5.090;2022-07-06T07:54:39;2.60;;;0.38;;
22939;SDS011;11636;52.086;5.090;2022-07-06T07:57:32;2.05;;;0.45;;
22939;SDS011;11636;52.086;5.090;2022-07-06T07:59:59;3.42;;;0.38;;
22939;SDS011;11636;52.086;5.090;2022-07-06T08:02:32;3.25;;;0.40;;
22939;SDS011;11636;52.086;5.090;2022-07-06T08:04:59;4.18;;;0.77;;
22939;SDS011;11636;52.086;5.090;2022-07-06T08:07:32;2.60;;;0.35;;
22939;SDS011;11636;52.086;5.090;2022-07-06T08:10:06;2.45;;;0.30;;
22939;SDS011;11636;52.086;5.090;2022-07-06T08:12:40;1.35;;;0.32;;
22939;SDS011;11636;52.086;5.090;2022-07-06T08:15:11;1.15;;;0.35;;
22939;SDS011;11636;52.086;5.090;2022-07-06T08:17:38;1.58;;;0.30;;
22939;SDS011;11636;52.086;5.090;2022-07-06T08:20:13;3.88;;;0.55;;
22939;SDS011;11636;52.086;5.090;2022-07-06T08:22:41;2.05;;;0.30;;
22939;SDS011;11636;52.086;5.090;2022-07-06T08:25:15;2.40;;;0.28;;
22939;SDS011;11636;52.086;5.090;2022-07-06T08:27:43;1.67;;;0.40;;
22939;SDS011;11636;52.086;5.090;2022-07-06T08:30:16;2.67;;;0.30;;
22939;SDS011;11636;52.086;5.090;2022-07-06T08:32:43;1.90;;;0.43;;
22939;SDS011;11636;52.086;5.090;2022-07-06T08:35:33;1.45;;;0.30;;
22939;SDS011;11636;52.086;5.090;2022-07-06T08:38:00;1.40;;;0.30;;
22939;SDS011;11636;52.086;5.090;2022-07-06T08:40:38;1.52;;;0.30;;
22939;SDS011;11636;52.086;5.090;2022-07-06T08:43:07;3.67;;;0.43;;
22939;SDS011;11636;52.086;5.090;2022-07-06T08:45:41;2.17;;;0.30;;
22939;SDS011;11636;52.086;5.090;2022-07-06T08:48:10;1.63;;;0.30;;
22939;SDS011;11636;52.086;5.090;2022-07-06T08:50:38;1.75;;;0.28;;
22939;SDS011;11636;52.086;5.090;2022-07-06T08:53:11;1.10;;;0.28;;
22939;SDS011;11636;52.086;5.090;2022-07-06T08:55:46;1.88;;;0.35;;
22939;SDS011;11636;52.086;5.090;2022-07-06T08:58:25;2.03;;;0.28;;
22939;SDS011;11636;52.086;5.090;2022-07-06T09:00:54;2.97;;;0.40;;
22939;SDS011;11636;52.086;5.090;2022-07-06T09:03:29;2.28;;;0.35;;
22939;SDS011;11636;52.086;5.090;2022-07-06T09:05:58;2.20;;;0.50;;
22939;SDS011;11636;52.086;5.090;2022-07-06T09:08:27;1.42;;;0.20;;
22939;SDS011;11636;52.086;5.090;2022-07-06T09:11:03;0.93;;;0.30;;
22939;SDS011;11636;52.086;5.090;2022-07-06T09:13:31;2.63;;;0.35;;
22939;SDS011;11636;52.086;5.090;2022-07-06T09:16:25;2.53;;;0.50;;
22939;SDS011;11636;52.086;5.090;2022-07-06T09:19:08;3.55;;;0.38;;
22939;SDS011;11636;52.086;5.090;2022-07-06T09:21:44;1.95;;;0.40;;
22939;SDS011;11636;52.086;5.090;2022-07-06T09:24:17;0.65;;;0.20;;
22939;SDS011;11636;52.086;5.090;2022-07-06T09:26:59;2.13;;;0.20;;
22939;SDS011;11636;52.086;5.090;2022-07-06T09:29:33;2.78;;;0.30;;
22939;SDS011;11636;52.086;5.090;2022-07-06T09:32:07;1.90;;;0.38;;
22939;SDS011;11636;52.086;5.090;2022-07-06T09:34:41;1.75;;;0.30;;
22939;SDS011;11636;52.086;5.090;2022-07-06T09:37:19;0.93;;;0.20;;
22939;SDS011;11636;52.086;5.090;2022-07-06T09:39:52;1.85;;;0.50;;
22939;SDS011;11636;52.086;5.090;2022-07-06T09:42:26;1.30;;;0.20;;
22939;SDS011;11636;52.086;5.090;2022-07-06T09:44:53;4.53;;;0.40;;
22939;SDS011;11636;52.086;5.090;2022-07-06T09:47:26;2.08;;;0.32;;
22939;SDS011;11636;52.086;5.090;2022-07-06T09:49:55;3.13;;;0.50;;
22939;SDS011;11636;52.086;5.090;2022-07-06T09:52:22;2.50;;;0.40;;
22939;SDS011;11636;52.086;5.090;2022-07-06T09:54:55;1.55;;;0.22;;
22939;SDS011;11636;52.086;5.090;2022-07-06T09:57:23;1.75;;;0.32;;
22939;SDS011;11636;52.086;5.090;2022-07-06T09:59:51;0.88;;;0.20;;
22939;SDS011;11636;52.086;5.090;2022-07-06T10:02:24;1.40;;;0.30;;
22939;SDS011;11636;52.086;5.090;2022-07-06T10:04:53;2.47;;;0.28;;
22939;SDS011;11636;52.086;5.090;2022-07-06T10:07:28;3.22;;;0.40;;
22939;SDS011;11636;52.086;5.090;2022-07-06T10:09:56;2.88;;;0.40;;
22939;SDS011;11636;52.086;5.090;2022-07-06T10:12:30;2.30;;;0.60;;
22939;SDS011;11636;52.086;5.090;2022-07-06T10:15:04;2.85;;;0.50;;
22939;SDS011;11636;52.086;5.090;2022-07-06T10:17:31;1.27;;;0.30;;
22939;SDS011;11636;52.086;5.090;2022-07-06T10:20:06;2.60;;;0.40;;
22939;SDS011;11636;52.086;5.090;2022-07-06T10:22:39;2.00;;;0.40;;
22939;SDS011;11636;52.086;5.090;2022-07-06T10:25:17;2.33;;;0.20;;
22939;SDS011;11636;52.086;5.090;2022-07-06T10:27:52;2.15;;;0.30;;
22939;SDS011;11636;52.086;5.090;2022-07-06T10:30:28;2.72;;;0.30;;
22939;SDS011;11636;52.086;5.090;2022-07-06T10:32:56;0.98;;;0.40;;
22939;SDS011;11636;52.086;5.090;2022-07-06T10:35:25;1.58;;;0.20;;
22939;SDS011;11636;52.086;5.090;2022-07-06T10:38:08;2.15;;;0.30;;
22939;SDS011;11636;52.086;5.090;2022-07-06T10:40:37;2.70;;;0.47;;
22939;SDS011;11636;52.086;5.090;2022-07-06T10:46:13;4.47;;;0.75;;
22939;SDS011;11636;52.086;5.090;2022-07-06T10:48:52;2.67;;;0.43;;
22939;SDS011;11636;52.086;5.090;2022-07-06T10:51:25;2.75;;;0.55;;
22939;SDS011;11636;52.086;5.090;2022-07-06T10:54:00;2.85;;;0.80;;
22939;SDS011;11636;52.086;5.090;2022-07-06T10:56:40;5.28;;;0.55;;
22939;SDS011;11636;52.086;5.090;2022-07-06T10:59:22;1.95;;;0.52;;
22939;SDS011;11636;52.086;5.090;2022-07-06T11:02:16;1.90;;;0.60;;
22939;SDS011;11636;52.086;5.090;2022-07-06T11:04:52;2.05;;;0.50;;
22939;SDS011;11636;52.086;5.090;2022-07-06T11:07:35;2.70;;;0.50;;
22939;SDS011;11636;52.086;5.090;2022-07-06T11:10:22;2.03;;;0.52;;
22939;SDS011;11636;52.086;5.090;2022-07-06T11:12:59;2.72;;;0.40;;
22939;SDS011;11636;52.086;5.090;2022-07-06T11:15:48;1.67;;;0.40;;
22939;SDS011;11636;52.086;5.090;2022-07-06T11:18:22;2.20;;;0.40;;
22939;SDS011;11636;52.086;5.090;2022-07-06T11:23:55;3.75;;;0.75;;
22939;SDS011;11636;52.086;5.090;2022-07-06T11:26:29;2.20;;;0.40;;
22939;SDS011;11636;52.086;5.090;2022-07-06T11:29:06;2.97;;;0.90;;
22939;SDS011;11636;52.086;5.090;2022-07-06T11:31:41;3.30;;;0.95;;
22939;SDS011;11636;52.086;5.090;2022-07-06T11:34:20;5.95;;;0.80;;
22939;SDS011;11636;52.086;5.090;2022-07-06T11:36:48;4.00;;;0.70;;
22939;SDS011;11636;52.086;5.090;2022-07-06T11:39:30;5.28;;;0.90;;
22939;SDS011;11636;52.086;5.090;2022-07-06T11:41:58;3.87;;;0.80;;
22939;SDS011;11636;52.086;5.090;2022-07-06T11:44:27;1.80;;;0.50;;
22939;SDS011;11636;52.086;5.090;2022-07-06T11:47:15;3.00;;;0.50;;
22939;SDS011;11636;52.086;5.090;2022-07-06T11:49:50;5.72;;;0.70;;
22939;SDS011;11636;52.086;5.090;2022-07-06T11:52:31;3.88;;;0.60;;
22939;SDS011;11636;52.086;5.090;2022-07-06T11:55:04;3.00;;;0.40;;
22939;SDS011;11636;52.086;5.090;2022-07-06T11:57:32;1.50;;;0.40;;
22939;SDS011;11636;52.086;5.090;2022-07-06T12:00:08;3.17;;;0.60;;
22939;SDS011;11636;52.086;5.090;2022-07-06T12:02:37;4.40;;;0.55;;
22939;SDS011;11636;52.086;5.090;2022-07-06T12:05:10;2.95;;;0.55;;
22939;SDS011;11636;52.086;5.090;2022-07-06T12:07:37;4.25;;;0.73;;
22939;SDS011;11636;52.086;5.090;2022-07-06T12:10:11;3.25;;;0.50;;
22939;SDS011;11636;52.086;5.090;2022-07-06T12:12:38;4.38;;;0.50;;
22939;SDS011;11636;52.086;5.090;2022-07-06T12:15:05;3.28;;;0.50;;
22939;SDS011;11636;52.086;5.090;2022-07-06T12:17:39;2.60;;;0.70;;
22939;SDS011;11636;52.086;5.090;2022-07-06T12:20:10;3.17;;;0.70;;
22939;SDS011;11636;52.086;5.090;2022-07-06T12:22:37;2.80;;;0.60;;
22939;SDS011;11636;52.086;5.090;2022-07-06T12:25:10;3.47;;;0.70;;
22939;SDS011;11636;52.086;5.090;2022-07-06T12:27:37;2.53;;;0.60;;
22939;SDS011;11636;52.086;5.090;2022-07-06T12:30:09;2.17;;;0.47;;
22939;SDS011;11636;52.086;5.090;2022-07-06T12:35:48;4.05;;;0.80;;
22939;SDS011;11636;52.086;5.090;2022-07-06T12:38:23;2.78;;;0.70;;
22939;SDS011;11636;52.086;5.090;2022-07-06T12:40:50;4.13;;;0.80;;
22939;SDS011;11636;52.086;5.090;2022-07-06T12:43:36;7.05;;;0.85;;
22939;SDS011;11636;52.086;5.090;2022-07-06T12:46:30;2.30;;;0.70;;
22939;SDS011;11636;52.086;5.090;2022-07-06T12:49:19;3.80;;;0.73;;
22939;SDS011;11636;52.086;5.090;2022-07-06T12:51:50;2.13;;;0.80;;
22939;SDS011;11636;52.086;5.090;2022-07-06T12:54:32;3.70;;;0.60;;
22939;SDS011;11636;52.086;5.090;2022-07-06T12:59:47;3.45;;;0.70;;
22939;SDS011;11636;52.086;5.090;2022-07-06T13:02:25;4.05;;;0.80;;
22939;SDS011;11636;52.086;5.090;2022-07-06T13:05:23;2.97;;;0.70;;
22939;SDS011;11636;52.086;5.090;2022-07-06T13:10:29;4.10;;;0.57;;
22939;SDS011;11636;52.086;5.090;2022-07-06T13:13:03;3.25;;;0.60;;
22939;SDS011;11636;52.086;5.090;2022-07-06T13:15:41;4.63;;;0.90;;
22939;SDS011;11636;52.086;5.090;2022-07-06T13:18:09;4.97;;;0.90;;
22939;SDS011;11636;52.086;5.090;2022-07-06T13:20:43;5.45;;;0.73;;
22939;SDS011;11636;52.086;5.090;2022-07-06T13:23:10;3.25;;;0.60;;
22939;SDS011;11636;52.086;5.090;2022-07-06T13:25:47;2.97;;;0.80;;
22939;SDS011;11636;52.086;5.090;2022-07-06T13:28:14;6.03;;;0.93;;
22939;SDS011;11636;52.086;5.090;2022-07-06T13:30:49;4.82;;;0.82;;
22939;SDS011;11636;52.086;5.090;2022-07-06T13:33:16;3.85;;;0.60;;
22939;SDS011;11636;52.086;5.090;2022-07-06T13:35:50;3.17;;;0.80;;
22939;SDS011;11636;52.086;5.090;2022-07-06T13:38:17;3.42;;;0.85;;
22939;SDS011;11636;52.086;5.090;2022-07-06T13:40:51;2.20;;;0.68;;
22939;SDS011;11636;52.086;5.090;2022-07-06T13:43:18;4.53;;;1.13;;
22939;SDS011;11636;52.086;5.090;2022-07-06T13:45:53;4.82;;;1.10;;
22939;SDS011;11636;52.086;5.090;2022-07-06T13:48:20;4.82;;;0.90;;
22939;SDS011;11636;52.086;5.090;2022-07-06T13:50:58;4.57;;;0.80;;
22939;SDS011;11636;52.086;5.090;2022-07-06T13:53:31;5.25;;;0.93;;
22939;SDS011;11636;52.086;5.090;2022-07-06T13:56:05;6.93;;;1.10;;
22939;SDS011;11636;52.086;5.090;2022-07-06T13:58:40;4.95;;;1.00;;
22939;SDS011;11636;52.086;5.090;2022-07-06T14:01:07;4.95;;;1.20;;
22939;SDS011;11636;52.086;5.090;2022-07-06T14:03:48;5.00;;;1.10;;
22939;SDS011;11636;52.086;5.090;2022-07-06T14:06:22;3.72;;;1.02;;
22939;SDS011;11636;52.086;5.090;2022-07-06T14:08:49;5.38;;;1.05;;
22939;SDS011;11636;52.086;5.090;2022-07-06T14:11:22;5.28;;;1.17;;
22939;SDS011;11636;52.086;5.090;2022-07-06T14:13:49;3.80;;;1.00;;
22939;SDS011;11636;52.086;5.090;2022-07-06T14:16:16;4.50;;;1.00;;
22939;SDS011;11636;52.086;5.090;2022-07-06T14:18:50;5.88;;;1.25;;
22939;SDS011;11636;52.086;5.090;2022-07-06T14:21:24;4.30;;;1.20;;
22939;SDS011;11636;52.086;5.090;2022-07-06T14:23:51;4.88;;;1.10;;
22939;SDS011;11636;52.086;5.090;2022-07-06T14:26:18;3.10;;;0.90;;
22939;SDS011;11636;52.086;5.090;2022-07-06T14:28:51;4.03;;;1.00;;
22939;SDS011;11636;52.086;5.090;2022-07-06T14:31:25;12.85;;;1.90;;
22939;SDS011;11636;52.086;5.090;2022-07-06T14:33:52;6.32;;;1.10;;
22939;SDS011;11636;52.086;5.090;2022-07-06T14:36:32;3.30;;;1.00;;
22939;SDS011;11636;52.086;5.090;2022-07-06T14:39:07;4.05;;;1.25;;
22939;SDS011;11636;52.086;5.090;2022-07-06T14:41:41;4.35;;;1.30;;
22939;SDS011;11636;52.086;5.090;2022-07-06T14:44:14;7.63;;;1.20;;
22939;SDS011;11636;52.086;5.090;2022-07-06T14:46:44;5.20;;;1.30;;
22939;SDS011;11636;52.086;5.090;2022-07-06T14:49:18;5.57;;;1.23;;
22939;SDS011;11636;52.086;5.090;2022-07-06T14:51:46;5.07;;;1.40;;
22939;SDS011;11636;52.086;5.090;2022-07-06T14:54:21;5.72;;;1.20;;
22939;SDS011;11636;52.086;5.090;2022-07-06T14:56:48;5.18;;;1.50;;
22939;SDS011;11636;52.086;5.090;2022-07-06T14:59:21;6.72;;;1.65;;
22939;SDS011;11636;52.086;5.090;2022-07-06T15:01:52;8.23;;;1.45;;
22939;SDS011;11636;52.086;5.090;2022-07-06T15:04:25;5.03;;;2.20;;
22939;SDS011;11636;52.086;5.090;2022-07-06T15:06:52;6.97;;;2.38;;
22939;SDS011;11636;52.086;5.090;2022-07-06T15:09:22;9.10;;;3.00;;
22939;SDS011;11636;52.086;5.090;2022-07-06T15:11:56;7.95;;;3.05;;
22939;SDS011;11636;52.086;5.090;2022-07-06T15:14:23;6.65;;;2.85;;
22939;SDS011;11636;52.086;5.090;2022-07-06T15:16:57;6.65;;;2.40;;
22939;SDS011;11636;52.086;5.090;2022-07-06T15:19:25;8.13;;;3.50;;
22939;SDS011;11636;52.086;5.090;2022-07-06T15:22:02;14.55;;;4.65;;
22939;SDS011;11636;52.086;5.090;2022-07-06T15:24:30;12.05;;;4.53;;
22939;SDS011;11636;52.086;5.090;2022-07-06T15:27:15;8.00;;;2.80;;
22939;SDS011;11636;52.086;5.090;2022-07-06T15:29:41;5.82;;;1.83;;
22939;SDS011;11636;52.086;5.090;2022-07-06T15:32:15;6.65;;;2.60;;
22939;SDS011;11636;52.086;5.090;2022-07-06T15:34:42;6.38;;;2.55;;